Time;durP1;ratioP1;P1;durP2;ratioP2;P2;SDS_P1;SDS_P2;PMS_P1;PMS_P2;Temp;Humidity;BMP_temperature;BMP_pressure;BME280_temperature;BME280_humidity;BME280_pressure;Samples;Min_cycle;Max_cycle;Signal;HPM_P1;HPM_P2
2023/09/20 00:00:07;;;;;;;2.45;1.80;;;;;;;;;;5051388;28;20201;-73
2023/09/20 00:02:36;;;;;;;2.05;1.80;;;;;;;;;;5051324;28;20197;-73
2023/09/20 00:05:04;;;;;;;3.92;1.75;;;;;;;;;;5050947;28;20216;-73
2023/09/20 00:07:30;;;;;;;3.63;1.80;;;;;;;;;;5051288;28;20189;-73
2023/09/20 00:09:56;;;;;;;3.75;1.73;;;;;;;;;;5051311;28;20224;-73
2023/09/20 00:12:23;;;;;;;1.90;1.90;;;;;;;;;;5051392;28;20710;-73
2023/09/20 00:14:49;;;;;;;5.40;2.47;;;;;;;;;;5051205;28;20202;-73
2023/09/20 00:17:16;;;;;;;4.07;2.05;;;;;;;;;;5050862;28;20229;-73
2023/09/20 00:19:43;;;;;;;3.60;2.20;;;;;;;;;;5051288;28;20201;-73
2023/09/20 00:22:13;;;;;;;5.45;2.15;;;;;;;;;;5051169;28;20574;-73
2023/09/20 00:24:39;;;;;;;2.38;2.20;;;;;;;;;;5051240;28;20648;-73
2023/09/20 00:27:05;;;;;;;1.80;1.70;;;;;;;;;;5050780;28;20595;-73
2023/09/20 00:29:32;;;;;;;4.07;2.00;;;;;;;;;;5051190;28;20224;-73
2023/09/20 00:31:58;;;;;;;2.42;1.88;;;;;;;;;;5050936;28;20208;-73
2023/09/20 00:34:26;;;;;;;3.20;2.10;;;;;;;;;;5051126;28;20212;-73
2023/09/20 00:36:52;;;;;;;2.47;2.25;;;;;;;;;;5050753;28;20225;-73
2023/09/20 00:39:20;;;;;;;4.22;2.10;;;;;;;;;;5051147;28;20204;-73
2023/09/20 00:41:48;;;;;;;2.35;2.25;;;;;;;;;;5053316;28;20201;-73
2023/09/20 00:44:14;;;;;;;6.20;2.20;;;;;;;;;;5054633;28;20207;-73
2023/09/20 00:46:42;;;;;;;2.92;1.95;;;;;;;;;;5054124;28;20308;-73
2023/09/20 00:49:08;;;;;;;2.65;2.40;;;;;;;;;;5054824;28;20197;-73
2023/09/20 00:51:35;;;;;;;2.70;2.08;;;;;;;;;;5054610;28;20197;-73
2023/09/20 00:54:04;;;;;;;4.55;2.05;;;;;;;;;;5054497;28;20205;-73
2023/09/20 00:56:31;;;;;;;2.13;1.92;;;;;;;;;;5054344;28;20309;-73
2023/09/20 00:59:03;;;;;;;5.13;2.17;;;;;;;;;;5054626;28;20228;-73
2023/09/20 01:01:42;;;;;;;3.42;1.95;;;;;;;;;;5054645;28;20280;-73
2023/09/20 01:04:10;;;;;;;2.53;2.15;;;;;;;;;;5053794;28;20201;-73
2023/09/20 01:06:36;;;;;;;2.13;2.03;;;;;;;;;;5054084;28;20240;-73
2023/09/20 01:09:04;;;;;;;2.30;2.20;;;;;;;;;;5054210;28;20737;-73
2023/09/20 01:11:32;;;;;;;2.50;2.22;;;;;;;;;;5054101;28;20201;-73
2023/09/20 01:13:59;;;;;;;2.20;2.00;;;;;;;;;;5053933;28;20209;-73
2023/09/20 01:16:25;;;;;;;2.70;2.15;;;;;;;;;;5053713;28;20218;-73
2023/09/20 01:18:51;;;;;;;2.83;2.17;;;;;;;;;;5054079;28;20267;-73
2023/09/20 01:21:18;;;;;;;2.22;2.00;;;;;;;;;;5054083;28;20200;-73
2023/09/20 01:23:46;;;;;;;4.25;2.47;;;;;;;;;;5053845;28;20681;-73
2023/09/20 01:26:13;;;;;;;2.35;2.20;;;;;;;;;;5053729;28;20224;-73
2023/09/20 01:28:39;;;;;;;2.42;1.98;;;;;;;;;;5053659;28;20228;-73
2023/09/20 01:31:05;;;;;;;2.30;2.20;;;;;;;;;;5053653;28;20224;-73
2023/09/20 01:33:32;;;;;;;3.78;2.03;;;;;;;;;;5053770;28;20208;-73
2023/09/20 01:35:58;;;;;;;2.53;2.33;;;;;;;;;;5053525;28;20225;-73
2023/09/20 01:38:25;;;;;;;2.28;2.08;;;;;;;;;;5053390;28;20240;-73
2023/09/20 01:40:55;;;;;;;3.40;2.10;;;;;;;;;;5053565;28;20251;-73
2023/09/20 01:43:21;;;;;;;2.72;2.15;;;;;;;;;;5053682;28;20201;-73
2023/09/20 01:45:48;;;;;;;2.00;1.90;;;;;;;;;;5053305;28;20231;-73
2023/09/20 01:48:15;;;;;;;2.10;1.92;;;;;;;;;;5045351;28;20197;-73
2023/09/20 01:50:42;;;;;;;1.92;1.83;;;;;;;;;;5053620;28;20232;-73
2023/09/20 01:53:11;;;;;;;2.53;1.98;;;;;;;;;;5053137;28;20619;-73
2023/09/20 01:55:38;;;;;;;3.13;2.00;;;;;;;;;;5053002;28;20711;-73
2023/09/20 01:58:06;;;;;;;2.75;1.90;;;;;;;;;;5052713;28;20638;-73
2023/09/20 02:00:36;;;;;;;4.40;1.70;;;;;;;;;;5053522;28;20356;-73
2023/09/20 02:03:06;;;;;;;3.00;1.67;;;;;;;;;;5053200;28;20205;-73
2023/09/20 02:05:33;;;;;;;1.92;1.70;;;;;;;;;;5052997;28;20221;-73
2023/09/20 02:08:00;;;;;;;1.67;1.63;;;;;;;;;;5052651;28;20618;-74
2023/09/20 02:10:26;;;;;;;2.10;2.00;;;;;;;;;;5053077;28;20204;-73
2023/09/20 02:12:53;;;;;;;1.77;1.65;;;;;;;;;;5052772;28;20206;-73
2023/09/20 02:15:21;;;;;;;2.65;1.88;;;;;;;;;;5052880;28;20225;-73
2023/09/20 02:17:48;;;;;;;2.80;1.70;;;;;;;;;;5052698;28;20217;-73
2023/09/20 02:20:19;;;;;;;2.92;1.70;;;;;;;;;;5052764;28;20204;-73
2023/09/20 02:22:46;;;;;;;2.38;2.17;;;;;;;;;;5052777;28;20658;-73
2023/09/20 02:25:14;;;;;;;2.97;2.03;;;;;;;;;;5052645;28;20221;-73
2023/09/20 02:27:40;;;;;;;2.75;2.10;;;;;;;;;;5052761;28;20197;-73
2023/09/20 02:30:09;;;;;;;2.60;2.13;;;;;;;;;;5052659;28;20233;-73
2023/09/20 02:32:36;;;;;;;2.78;2.20;;;;;;;;;;5052409;28;20646;-73
2023/09/20 02:35:03;;;;;;;1.65;1.65;;;;;;;;;;5052419;28;20221;-73
2023/09/20 02:37:30;;;;;;;3.03;1.90;;;;;;;;;;5052262;28;20221;-73
2023/09/20 02:39:56;;;;;;;2.33;2.15;;;;;;;;;;5052227;28;20212;-73
2023/09/20 02:42:23;;;;;;;2.20;2.10;;;;;;;;;;5052576;28;20207;-73
2023/09/20 02:44:50;;;;;;;2.00;1.90;;;;;;;;;;5052403;28;20223;-73
2023/09/20 02:47:18;;;;;;;5.88;1.90;;;;;;;;;;5051957;28;20201;-73
2023/09/20 02:49:48;;;;;;;2.03;1.73;;;;;;;;;;5052258;28;20208;-73
2023/09/20 02:52:14;;;;;;;2.08;1.67;;;;;;;;;;5052263;28;20201;-73
2023/09/20 02:54:42;;;;;;;1.83;1.73;;;;;;;;;;5052501;28;20339;-73
2023/09/20 02:57:10;;;;;;;3.45;1.95;;;;;;;;;;5052175;28;20209;-73
2023/09/20 02:59:38;;;;;;;2.13;2.03;;;;;;;;;;5052146;28;20221;-73
2023/09/20 03:02:05;;;;;;;2.85;2.20;;;;;;;;;;5051916;28;20197;-73
2023/09/20 03:04:31;;;;;;;3.17;2.10;;;;;;;;;;5051730;28;20198;-73
2023/09/20 03:06:59;;;;;;;3.65;2.20;;;;;;;;;;5051500;28;20217;-73
2023/09/20 03:09:26;;;;;;;2.85;2.30;;;;;;;;;;5052089;28;20195;-73
2023/09/20 03:11:54;;;;;;;3.47;1.92;;;;;;;;;;5052072;28;20201;-73
2023/09/20 03:14:23;;;;;;;2.22;2.03;;;;;;;;;;5051973;28;20197;-73
2023/09/20 03:16:49;;;;;;;2.47;2.13;;;;;;;;;;5051362;28;20589;-73
2023/09/20 03:19:15;;;;;;;2.22;2.13;;;;;;;;;;5051645;28;20217;-73
2023/09/20 03:21:46;;;;;;;2.88;2.30;;;;;;;;;;5051805;28;20197;-73
2023/09/20 03:24:13;;;;;;;4.28;2.38;;;;;;;;;;5051790;28;20288;-73
2023/09/20 03:26:40;;;;;;;2.03;1.92;;;;;;;;;;5051574;28;20228;-73
2023/09/20 03:29:07;;;;;;;2.33;2.22;;;;;;;;;;5051983;28;20221;-73
2023/09/20 03:31:33;;;;;;;3.30;2.35;;;;;;;;;;5051798;28;20193;-73
2023/09/20 03:34:00;;;;;;;5.22;2.70;;;;;;;;;;5051273;28;20201;-73
2023/09/20 03:36:27;;;;;;;4.13;2.10;;;;;;;;;;5051452;28;20219;-73
2023/09/20 03:38:55;;;;;;;5.07;2.63;;;;;;;;;;5051685;28;20566;-73
2023/09/20 03:41:24;;;;;;;4.65;2.63;;;;;;;;;;5051764;28;20243;-73
2023/09/20 03:43:50;;;;;;;3.97;2.35;;;;;;;;;;5051584;28;20284;-73
2023/09/20 03:46:16;;;;;;;2.38;2.17;;;;;;;;;;5051257;28;20228;-73
2023/09/20 03:48:43;;;;;;;5.18;2.40;;;;;;;;;;5051150;28;20591;-73
2023/09/20 03:51:13;;;;;;;2.40;2.30;;;;;;;;;;5051605;28;20293;-73
2023/09/20 03:53:39;;;;;;;2.15;2.03;;;;;;;;;;5051599;28;20232;-74
2023/09/20 03:56:08;;;;;;;3.38;2.00;;;;;;;;;;5051186;28;20225;-73
2023/09/20 03:58:36;;;;;;;2.88;2.45;;;;;;;;;;5051172;28;20216;-73
2023/09/20 04:01:03;;;;;;;2.88;2.42;;;;;;;;;;5051307;28;20291;-73
2023/09/20 04:03:29;;;;;;;2.45;2.35;;;;;;;;;;5051419;28;20662;-73
2023/09/20 04:05:57;;;;;;;2.95;2.75;;;;;;;;;;5051361;28;20244;-73
2023/09/20 04:08:23;;;;;;;2.90;2.70;;;;;;;;;;5050980;28;20198;-73
2023/09/20 04:10:49;;;;;;;3.92;2.40;;;;;;;;;;5051236;28;20197;-73
2023/09/20 04:13:17;;;;;;;2.70;2.47;;;;;;;;;;5051428;28;20205;-73
2023/09/20 04:15:45;;;;;;;3.30;2.47;;;;;;;;;;5051957;28;20256;-73
2023/09/20 04:18:12;;;;;;;2.42;2.30;;;;;;;;;;5054787;28;20764;-73
2023/09/20 04:20:39;;;;;;;2.95;2.72;;;;;;;;;;5055185;28;20211;-73
2023/09/20 04:23:06;;;;;;;2.83;2.50;;;;;;;;;;5055278;28;20205;-72
2023/09/20 04:25:32;;;;;;;2.22;2.13;;;;;;;;;;5055201;28;20312;-72
2023/09/20 04:27:58;;;;;;;4.13;2.38;;;;;;;;;;5054865;28;20201;-72
2023/09/20 04:30:25;;;;;;;3.75;2.58;;;;;;;;;;5054708;28;20209;-72
2023/09/20 04:32:52;;;;;;;5.80;2.88;;;;;;;;;;5055014;28;20212;-72
2023/09/20 04:35:19;;;;;;;3.15;2.90;;;;;;;;;;5054878;28;20318;-73
2023/09/20 04:37:45;;;;;;;2.65;2.45;;;;;;;;;;5054699;28;20212;-73
2023/09/20 04:40:12;;;;;;;2.40;2.15;;;;;;;;;;5054684;28;20205;-73
2023/09/20 04:42:38;;;;;;;2.38;2.17;;;;;;;;;;5054623;28;20610;-72
2023/09/20 04:45:06;;;;;;;5.93;2.22;;;;;;;;;;5054571;28;20224;-68
2023/09/20 04:47:35;;;;;;;4.97;2.85;;;;;;;;;;5046474;28;20712;-68
2023/09/20 04:50:02;;;;;;;2.50;2.28;;;;;;;;;;5054580;28;20204;-68
2023/09/20 04:52:30;;;;;;;2.25;2.15;;;;;;;;;;5054655;28;20208;-68
2023/09/20 04:54:56;;;;;;;6.90;2.58;;;;;;;;;;5054924;28;20278;-68
2023/09/20 04:57:23;;;;;;;3.83;2.47;;;;;;;;;;5054131;28;20223;-68
2023/09/20 04:59:50;;;;;;;3.35;2.70;;;;;;;;;;5054286;28;20634;-68
2023/09/20 05:02:16;;;;;;;8.73;2.90;;;;;;;;;;5054591;28;20228;-68
2023/09/20 05:04:43;;;;;;;4.82;2.80;;;;;;;;;;5054279;28;20239;-68
2023/09/20 05:07:10;;;;;;;2.70;2.50;;;;;;;;;;5053910;28;20580;-68
2023/09/20 05:09:37;;;;;;;3.92;2.50;;;;;;;;;;5054384;28;20198;-69
2023/09/20 05:12:04;;;;;;;3.13;2.80;;;;;;;;;;5054114;28;20587;-68
2023/09/20 05:14:30;;;;;;;6.03;2.60;;;;;;;;;;5054163;28;20205;-68
2023/09/20 05:16:57;;;;;;;3.00;2.05;;;;;;;;;;5053805;28;20228;-68
2023/09/20 05:19:23;;;;;;;6.93;2.38;;;;;;;;;;5053948;28;20221;-68
2023/09/20 05:21:50;;;;;;;4.70;2.53;;;;;;;;;;5053879;28;20630;-68
2023/09/20 05:24:17;;;;;;;8.90;2.80;;;;;;;;;;5053876;28;20205;-68
2023/09/20 05:26:44;;;;;;;5.80;2.92;;;;;;;;;;5053206;28;20227;-68
2023/09/20 05:29:10;;;;;;;3.08;2.78;;;;;;;;;;5053687;28;20609;-68
2023/09/20 05:31:37;;;;;;;3.75;2.80;;;;;;;;;;5053642;28;20679;-68
2023/09/20 05:34:05;;;;;;;5.47;2.60;;;;;;;;;;5053633;28;20232;-68
2023/09/20 05:36:32;;;;;;;4.07;2.60;;;;;;;;;;5053292;28;20217;-68
2023/09/20 05:38:58;;;;;;;7.55;3.38;;;;;;;;;;5053780;28;20225;-68
2023/09/20 05:41:29;;;;;;;6.60;3.35;;;;;;;;;;5053408;28;20692;-68
2023/09/20 05:43:55;;;;;;;3.67;2.90;;;;;;;;;;5053749;28;20205;-68
2023/09/20 05:46:24;;;;;;;7.70;3.17;;;;;;;;;;5053088;28;20221;-68
2023/09/20 05:48:51;;;;;;;3.65;2.50;;;;;;;;;;5053514;28;20193;-68
2023/09/20 05:51:18;;;;;;;9.50;3.30;;;;;;;;;;5053277;28;20243;-68
2023/09/20 05:53:44;;;;;;;7.03;3.20;;;;;;;;;;5053429;28;20205;-68
2023/09/20 05:56:11;;;;;;;10.70;3.83;;;;;;;;;;5053443;28;20228;-68
2023/09/20 05:58:40;;;;;;;8.65;3.42;;;;;;;;;;5053197;28;20294;-68
2023/09/20 06:01:09;;;;;;;6.95;3.50;;;;;;;;;;5053234;28;20565;-68
2023/09/20 06:03:35;;;;;;;11.13;3.10;;;;;;;;;;5053107;28;20204;-68
2023/09/20 06:06:03;;;;;;;9.02;3.33;;;;;;;;;;5053011;28;20227;-68
2023/09/20 06:08:30;;;;;;;8.25;2.97;;;;;;;;;;5052630;28;20682;-68
2023/09/20 06:10:56;;;;;;;6.05;2.95;;;;;;;;;;5053218;28;20212;-68
2023/09/20 06:13:22;;;;;;;10.75;3.25;;;;;;;;;;5053110;28;20216;-68
2023/09/20 06:15:50;;;;;;;7.10;3.30;;;;;;;;;;5052751;28;20228;-68
2023/09/20 06:18:17;;;;;;;10.57;3.05;;;;;;;;;;5052347;28;20201;-68
2023/09/20 06:20:50;;;;;;;3.95;3.22;;;;;;;;;;5052709;28;20224;-68
2023/09/20 06:23:17;;;;;;;10.63;3.25;;;;;;;;;;5052891;28;20209;-68
2023/09/20 06:25:46;;;;;;;6.07;3.60;;;;;;;;;;5052749;28;20225;-69
2023/09/20 06:28:13;;;;;;;6.18;3.20;;;;;;;;;;5045777;28;20213;-68
2023/09/20 06:30:41;;;;;;;11.35;3.00;;;;;;;;;;5046977;28;20216;-69
2023/09/20 06:33:09;;;;;;;7.65;3.40;;;;;;;;;;5045987;28;20213;-69
2023/09/20 06:35:39;;;;;;;8.55;3.22;;;;;;;;;;5046342;28;20248;-69
2023/09/20 06:38:05;;;;;;;6.22;2.90;;;;;;;;;;5045449;28;20232;-69
2023/09/20 06:40:38;;;;;;;3.05;2.63;;;;;;;;;;5045994;28;20218;-69
2023/09/20 06:43:06;;;;;;;4.68;2.92;;;;;;;;;;5046478;28;20212;-69
2023/09/20 06:45:32;;;;;;;7.68;2.83;;;;;;;;;;5045940;28;20279;-68
2023/09/20 06:47:58;;;;;;;2.55;2.35;;;;;;;;;;5046094;28;20309;-69
2023/09/20 06:50:26;;;;;;;2.85;2.40;;;;;;;;;;5032092;28;20202;-69
2023/09/20 06:52:54;;;;;;;3.13;2.78;;;;;;;;;;5032658;28;20493;-68
2023/09/20 06:55:20;;;;;;;4.75;3.22;;;;;;;;;;5029407;28;20533;-68
2023/09/20 06:57:49;;;;;;;15.02;3.97;;;;;;;;;;5034447;28;20205;-68
2023/09/20 07:00:21;;;;;;;3.72;3.28;;;;;;;;;;5036838;28;20629;-71
2023/09/20 07:02:48;;;;;;;5.30;2.88;;;;;;;;;;5038457;28;20213;-71
2023/09/20 07:05:15;;;;;;;2.90;2.00;;;;;;;;;;5034640;28;20247;-70
2023/09/20 07:07:43;;;;;;;2.63;2.50;;;;;;;;;;5038563;28;20216;-70
2023/09/20 07:10:10;;;;;;;4.57;2.55;;;;;;;;;;5033379;28;20271;-67
2023/09/20 07:12:38;;;;;;;3.78;2.60;;;;;;;;;;5034522;28;20524;-69
2023/09/20 07:15:06;;;;;;;3.97;2.72;;;;;;;;;;5040243;28;20752;-69
2023/09/20 07:17:32;;;;;;;2.72;2.08;;;;;;;;;;5041497;28;20212;-68
2023/09/20 07:19:58;;;;;;;3.25;2.15;;;;;;;;;;5040295;28;20759;-71
2023/09/20 07:22:25;;;;;;;3.17;2.25;;;;;;;;;;5042217;28;20204;-71
2023/09/20 07:24:54;;;;;;;3.40;2.40;;;;;;;;;;5035636;28;20206;-70
2023/09/20 07:27:20;;;;;;;3.42;2.47;;;;;;;;;;5032435;28;20253;-70
2023/09/20 07:29:47;;;;;;;4.75;2.78;;;;;;;;;;5038864;28;20206;-71
2023/09/20 07:32:15;;;;;;;5.13;2.20;;;;;;;;;;5039197;28;20267;-70
2023/09/20 07:34:41;;;;;;;4.20;2.08;;;;;;;;;;5040010;28;20313;-68
2023/09/20 07:37:12;;;;;;;3.90;2.10;;;;;;;;;;5042698;28;20209;-68
2023/09/20 07:39:38;;;;;;;4.68;2.10;;;;;;;;;;5037729;28;20620;-68
2023/09/20 07:42:06;;;;;;;6.80;2.63;;;;;;;;;;5038113;28;20201;-68
2023/09/20 07:44:32;;;;;;;4.40;2.20;;;;;;;;;;5040553;28;20681;-67
2023/09/20 07:46:59;;;;;;;10.20;2.50;;;;;;;;;;5039267;28;20210;-69
2023/09/20 07:49:25;;;;;;;4.07;2.20;;;;;;;;;;5032412;28;20576;-69
2023/09/20 07:51:53;;;;;;;6.05;2.42;;;;;;;;;;5042710;28;20205;-69
2023/09/20 07:54:20;;;;;;;9.77;2.33;;;;;;;;;;5041019;28;20744;-70
2023/09/20 07:56:49;;;;;;;5.13;2.00;;;;;;;;;;5042996;28;20701;-70
2023/09/20 07:59:17;;;;;;;4.90;2.40;;;;;;;;;;5032713;28;20596;-69
2023/09/20 08:01:44;;;;;;;7.07;2.25;;;;;;;;;;5044929;28;20205;-68
2023/09/20 08:04:11;;;;;;;7.20;2.30;;;;;;;;;;5039241;28;20225;-69
2023/09/20 08:06:40;;;;;;;4.00;1.85;;;;;;;;;;5036097;28;20279;-71
2023/09/20 08:09:06;;;;;;;3.60;1.88;;;;;;;;;;5044224;28;20674;-68
2023/09/20 08:11:33;;;;;;;1.80;1.70;;;;;;;;;;5038797;28;20206;-70
2023/09/20 08:14:01;;;;;;;2.85;2.00;;;;;;;;;;5044070;28;20208;-69
2023/09/20 08:16:32;;;;;;;2.35;1.65;;;;;;;;;;5041039;28;20221;-71
2023/09/20 08:19:16;;;;;;;3.10;1.60;;;;;;;;;;5042655;28;20211;-68
2023/09/20 08:21:43;;;;;;;4.93;1.83;;;;;;;;;;5046491;28;20751;-73
2023/09/20 08:59:52;;;;;;;9.35;1.75;;;;;;;;;;5034252;28;20251;-72
2023/09/20 09:02:18;;;;;;;3.58;1.80;;;;;;;;;;5032648;28;20249;-68
2023/09/20 09:04:47;;;;;;;6.80;2.45;;;;;;;;;;5043550;28;20228;-71
2023/09/20 09:07:13;;;;;;;2.63;1.55;;;;;;;;;;5029997;28;20244;-71
2023/09/20 09:09:40;;;;;;;2.75;1.48;;;;;;;;;;5034027;28;20210;-72
2023/09/20 09:12:07;;;;;;;2.55;1.70;;;;;;;;;;5034386;28;20224;-70
2023/09/20 09:14:35;;;;;;;1.67;1.58;;;;;;;;;;5031264;28;20209;-69
2023/09/20 09:17:02;;;;;;;2.22;1.40;;;;;;;;;;5040778;28;20200;-68
2023/09/20 09:19:28;;;;;;;2.05;1.20;;;;;;;;;;5030231;28;20296;-69
2023/09/20 09:21:56;;;;;;;1.58;1.23;;;;;;;;;;5035162;28;20275;-68
2023/09/20 09:24:23;;;;;;;1.48;1.48;;;;;;;;;;5043263;28;20228;-70
2023/09/20 09:26:49;;;;;;;1.88;1.55;;;;;;;;;;5037067;28;20295;-70
2023/09/20 09:29:17;;;;;;;3.45;1.50;;;;;;;;;;5034457;28;20205;-72
2023/09/20 09:31:47;;;;;;;3.17;1.48;;;;;;;;;;5034153;28;20205;-68
2023/09/20 09:34:13;;;;;;;1.95;1.45;;;;;;;;;;5028012;28;20232;-70
2023/09/20 09:36:41;;;;;;;1.60;1.50;;;;;;;;;;5033816;28;20233;-68
2023/09/20 09:39:14;;;;;;;3.13;1.50;;;;;;;;;;5032681;28;20699;-69
2023/09/20 09:41:43;;;;;;;2.22;1.33;;;;;;;;;;5040007;28;20770;-70
2023/09/20 09:44:10;;;;;;;4.38;1.67;;;;;;;;;;5039625;28;20780;-68
2023/09/20 09:46:38;;;;;;;1.55;1.45;;;;;;;;;;5042405;28;20327;-69
2023/09/20 09:49:04;;;;;;;2.58;1.33;;;;;;;;;;5033952;28;20205;-70
2023/09/20 09:51:32;;;;;;;5.65;1.30;;;;;;;;;;5029528;28;20205;-69
2023/09/20 09:53:59;;;;;;;1.23;1.10;;;;;;;;;;5035323;28;20641;-68
2023/09/20 09:56:27;;;;;;;1.90;1.20;;;;;;;;;;5038120;28;20224;-69
2023/09/20 09:58:54;;;;;;;1.63;1.15;;;;;;;;;;5033461;28;20205;-67
2023/09/20 10:01:22;;;;;;;2.00;1.30;;;;;;;;;;5031853;28;20251;-71
2023/09/20 10:03:50;;;;;;;1.80;1.05;;;;;;;;;;5034540;28;20213;-69
2023/09/20 10:06:22;;;;;;;1.92;1.20;;;;;;;;;;5031297;28;20601;-67
2023/09/20 10:08:52;;;;;;;3.30;1.00;;;;;;;;;;5043039;28;20216;-70
2023/09/20 10:11:21;;;;;;;2.13;1.50;;;;;;;;;;5046341;28;20197;-70
2023/09/20 10:13:50;;;;;;;1.33;1.20;;;;;;;;;;5044387;28;20213;-71
2023/09/20 10:16:18;;;;;;;1.35;1.30;;;;;;;;;;5040785;28;20243;-70
2023/09/20 10:18:51;;;;;;;2.03;1.50;;;;;;;;;;5034460;28;20565;-70
2023/09/20 10:21:20;;;;;;;1.95;1.50;;;;;;;;;;5038423;28;20223;-71
2023/09/20 10:23:47;;;;;;;1.55;1.30;;;;;;;;;;5042342;28;20212;-68
2023/09/20 10:26:14;;;;;;;1.48;1.40;;;;;;;;;;5033746;28;20221;-67
2023/09/20 10:28:41;;;;;;;1.58;1.48;;;;;;;;;;5042133;28;20293;-67
2023/09/20 10:31:14;;;;;;;1.80;1.65;;;;;;;;;;5030433;28;20208;-69
2023/09/20 10:33:46;;;;;;;1.23;1.23;;;;;;;;;;5035492;28;20220;-67
2023/09/20 10:36:14;;;;;;;1.20;1.20;;;;;;;;;;5044954;28;20540;-68
2023/09/20 10:38:40;;;;;;;4.55;1.25;;;;;;;;;;5040719;28;20259;-68
2023/09/20 10:41:10;;;;;;;1.73;1.60;;;;;;;;;;5045096;28;20228;-68
2023/09/20 10:43:43;;;;;;;1.02;1.02;;;;;;;;;;5045368;28;20236;-68
2023/09/20 10:46:12;;;;;;;1.35;1.25;;;;;;;;;;5044719;28;20731;-68
2023/09/20 10:48:41;;;;;;;1.65;1.60;;;;;;;;;;5045162;28;20258;-67
2023/09/20 10:51:07;;;;;;;2.10;1.70;;;;;;;;;;5038232;28;20195;-68
2023/09/20 10:53:52;;;;;;;2.08;1.10;;;;;;;;;;5038639;28;20296;-68
2023/09/20 10:56:33;;;;;;;1.83;1.50;;;;;;;;;;5038872;28;20224;-69
2023/09/20 10:59:00;;;;;;;1.63;1.35;;;;;;;;;;5038700;28;20689;-70
2023/09/20 11:01:27;;;;;;;1.13;1.00;;;;;;;;;;5040560;28;20667;-69
2023/09/20 11:03:54;;;;;;;2.40;1.50;;;;;;;;;;5039647;28;20208;-70
2023/09/20 11:06:21;;;;;;;1.33;1.27;;;;;;;;;;5043696;28;20220;-68
2023/09/20 11:08:47;;;;;;;1.95;1.30;;;;;;;;;;5041755;28;20658;-68
2023/09/20 11:11:15;;;;;;;0.85;0.80;;;;;;;;;;5041457;28;20535;-68
2023/09/20 11:13:44;;;;;;;1.05;1.00;;;;;;;;;;5041096;28;20219;-68
2023/09/20 11:16:11;;;;;;;2.55;0.80;;;;;;;;;;5037007;28;20784;-68
2023/09/20 11:18:39;;;;;;;0.90;0.90;;;;;;;;;;5035123;28;20232;-68
2023/09/20 11:21:07;;;;;;;2.03;0.88;;;;;;;;;;5028354;28;20221;-68
2023/09/20 11:23:33;;;;;;;1.30;0.80;;;;;;;;;;5039429;28;20278;-68
2023/09/20 11:26:00;;;;;;;0.77;0.77;;;;;;;;;;5043911;28;20259;-68
2023/09/20 11:28:27;;;;;;;1.88;0.88;;;;;;;;;;5040578;28;20231;-68
2023/09/20 11:30:53;;;;;;;0.90;0.90;;;;;;;;;;5040783;28;20236;-68
2023/09/20 11:33:27;;;;;;;1.15;0.80;;;;;;;;;;5042356;28;20231;-68
2023/09/20 11:35:55;;;;;;;3.00;1.00;;;;;;;;;;5044398;28;20224;-68
2023/09/20 11:38:22;;;;;;;1.95;0.90;;;;;;;;;;5039357;28;20452;-68
2023/09/20 11:40:49;;;;;;;0.65;0.65;;;;;;;;;;5043747;28;20223;-68
2023/09/20 11:43:20;;;;;;;1.83;1.23;;;;;;;;;;5044269;28;20220;-68
2023/09/20 11:45:49;;;;;;;2.35;1.10;;;;;;;;;;5043804;28;20234;-69
2023/09/20 11:48:16;;;;;;;1.35;1.00;;;;;;;;;;5037855;28;20208;-69
2023/09/20 11:50:44;;;;;;;1.67;0.90;;;;;;;;;;5032726;28;20201;-69
2023/09/20 11:53:15;;;;;;;0.90;0.90;;;;;;;;;;5034929;28;20255;-69
2023/09/20 11:55:42;;;;;;;1.98;0.90;;;;;;;;;;5035375;28;20315;-69
2023/09/20 11:58:09;;;;;;;0.73;0.70;;;;;;;;;;5043230;28;20207;-69
2023/09/20 12:00:36;;;;;;;0.82;0.82;;;;;;;;;;5032205;28;20221;-69
2023/09/20 12:03:03;;;;;;;0.82;0.82;;;;;;;;;;5029907;28;20680;-67
2023/09/20 12:05:29;;;;;;;3.72;0.70;;;;;;;;;;5044039;28;20247;-68
2023/09/20 12:07:56;;;;;;;1.58;1.00;;;;;;;;;;5041339;28;20204;-68
2023/09/20 12:10:24;;;;;;;1.05;0.80;;;;;;;;;;5033489;28;20251;-69
2023/09/20 12:12:51;;;;;;;3.03;0.85;;;;;;;;;;5036961;28;20215;-70
2023/09/20 12:15:18;;;;;;;2.67;1.00;;;;;;;;;;5039600;28;20221;-69
2023/09/20 12:17:45;;;;;;;0.77;0.77;;;;;;;;;;5041008;28;20346;-69
2023/09/20 12:20:12;;;;;;;3.80;0.98;;;;;;;;;;5043087;28;20258;-72
2023/09/20 12:22:39;;;;;;;1.95;0.82;;;;;;;;;;5041486;28;20283;-71
2023/09/20 12:25:06;;;;;;;1.65;0.90;;;;;;;;;;5042503;28;20237;-67
2023/09/20 12:27:34;;;;;;;2.28;1.00;;;;;;;;;;5031174;28;20217;-66
2023/09/20 12:30:00;;;;;;;1.77;0.90;;;;;;;;;;5044901;28;20703;-67
2023/09/20 12:32:27;;;;;;;2.25;1.00;;;;;;;;;;5044981;28;20228;-67
2023/09/20 12:34:54;;;;;;;1.17;0.98;;;;;;;;;;5044859;28;20205;-68
2023/09/20 12:37:21;;;;;;;1.00;0.70;;;;;;;;;;5046557;28;20273;-68
2023/09/20 12:39:47;;;;;;;1.92;0.80;;;;;;;;;;5049216;28;20219;-68
2023/09/20 12:42:13;;;;;;;1.02;1.00;;;;;;;;;;5049178;28;20235;-69
2023/09/20 12:44:41;;;;;;;0.75;0.75;;;;;;;;;;5049018;28;20211;-71
2023/09/20 12:47:09;;;;;;;1.92;1.20;;;;;;;;;;5041808;28;20303;-72
2023/09/20 12:49:36;;;;;;;1.75;1.10;;;;;;;;;;5037900;28;20343;-69
2023/09/20 12:52:03;;;;;;;0.95;0.90;;;;;;;;;;5037007;28;20236;-69
2023/09/20 12:54:30;;;;;;;0.90;0.90;;;;;;;;;;5033849;28;20763;-68
2023/09/20 12:56:57;;;;;;;0.82;0.82;;;;;;;;;;5039263;28;20226;-68
2023/09/20 12:59:26;;;;;;;0.82;0.80;;;;;;;;;;5041376;28;20197;-68
2023/09/20 13:01:55;;;;;;;0.80;0.80;;;;;;;;;;5046112;28;20731;-69
2023/09/20 13:04:21;;;;;;;1.75;0.70;;;;;;;;;;5038214;28;20205;-69
2023/09/20 13:06:47;;;;;;;2.30;0.90;;;;;;;;;;5032350;28;20733;-70
2023/09/20 13:09:14;;;;;;;1.17;0.77;;;;;;;;;;5035238;28;20212;-71
2023/09/20 13:11:41;;;;;;;0.95;0.90;;;;;;;;;;5047117;28;20266;-70
2023/09/20 13:14:07;;;;;;;0.70;0.70;;;;;;;;;;5032792;28;20255;-70
2023/09/20 13:16:34;;;;;;;0.80;0.80;;;;;;;;;;5042628;28;20235;-69
2023/09/20 13:19:02;;;;;;;2.38;0.80;;;;;;;;;;5036255;28;20287;-70
2023/09/20 13:21:29;;;;;;;0.70;0.70;;;;;;;;;;5037533;28;20284;-69
2023/09/20 13:23:59;;;;;;;0.80;0.80;;;;;;;;;;5040534;28;20725;-69
2023/09/20 13:26:25;;;;;;;0.70;0.70;;;;;;;;;;5045792;28;20646;-68
2023/09/20 13:28:51;;;;;;;0.80;0.80;;;;;;;;;;5032267;28;20225;-66
2023/09/20 13:31:18;;;;;;;1.98;0.85;;;;;;;;;;5046661;28;20204;-71
2023/09/20 13:33:45;;;;;;;0.82;0.82;;;;;;;;;;5038651;28;20209;-70
2023/09/20 13:36:12;;;;;;;2.03;0.70;;;;;;;;;;5037869;28;20544;-69
2023/09/20 13:38:38;;;;;;;0.60;0.60;;;;;;;;;;5039384;28;20236;-67
2023/09/20 13:41:05;;;;;;;0.73;0.70;;;;;;;;;;5041403;28;20229;-69
2023/09/20 13:43:31;;;;;;;1.25;0.90;;;;;;;;;;5043083;28;20206;-68
2023/09/20 13:45:57;;;;;;;3.25;0.60;;;;;;;;;;5042564;28;20262;-67
2023/09/20 13:48:24;;;;;;;0.82;0.70;;;;;;;;;;5037978;28;20209;-69
2023/09/20 13:50:50;;;;;;;1.08;0.70;;;;;;;;;;5033982;28;20608;-67
2023/09/20 13:53:18;;;;;;;0.88;0.80;;;;;;;;;;5048527;28;20685;-68
2023/09/20 13:55:46;;;;;;;4.45;1.05;;;;;;;;;;5047373;28;20256;-69
2023/09/20 13:58:13;;;;;;;3.47;0.60;;;;;;;;;;5047952;28;20232;-69
2023/09/20 14:00:40;;;;;;;0.60;0.60;;;;;;;;;;5043308;28;20303;-73
2023/09/20 14:03:07;;;;;;;0.80;0.80;;;;;;;;;;5048459;28;20613;-73
2023/09/20 14:05:34;;;;;;;2.03;0.93;;;;;;;;;;5048621;28;20233;-72
2023/09/20 14:08:00;;;;;;;3.72;0.52;;;;;;;;;;5048051;28;20748;-72
2023/09/20 14:10:31;;;;;;;1.05;0.75;;;;;;;;;;5045565;28;20241;-72
2023/09/20 14:12:57;;;;;;;0.77;0.70;;;;;;;;;;5045445;28;20651;-73
2023/09/20 14:15:25;;;;;;;0.70;0.65;;;;;;;;;;5048345;28;20224;-73
2023/09/20 14:17:53;;;;;;;1.85;0.80;;;;;;;;;;5048598;28;20224;-73
2023/09/20 14:20:20;;;;;;;0.73;0.68;;;;;;;;;;5042566;28;20209;-73
2023/09/20 14:22:49;;;;;;;0.70;0.70;;;;;;;;;;5048212;28;20232;-74
2023/09/20 14:25:16;;;;;;;1.38;0.70;;;;;;;;;;5048722;28;20228;-74
2023/09/20 14:27:44;;;;;;;1.25;0.70;;;;;;;;;;5043658;28;20607;-72
2023/09/20 14:30:11;;;;;;;1.08;1.00;;;;;;;;;;5049021;28;20607;-75
2023/09/20 14:32:38;;;;;;;2.55;0.93;;;;;;;;;;5049245;28;20204;-72
2023/09/20 14:35:06;;;;;;;2.42;0.98;;;;;;;;;;5040094;28;20260;-72
2023/09/20 14:37:32;;;;;;;1.35;0.80;;;;;;;;;;5044906;28;20635;-72
2023/09/20 14:39:59;;;;;;;0.90;0.90;;;;;;;;;;5048004;28;20209;-72
2023/09/20 14:42:27;;;;;;;1.90;0.77;;;;;;;;;;5047893;28;20217;-74
2023/09/20 14:44:55;;;;;;;0.68;0.68;;;;;;;;;;5048319;28;20239;-72
2023/09/20 14:47:21;;;;;;;0.70;0.70;;;;;;;;;;5048600;28;20205;-73
2023/09/20 14:49:47;;;;;;;0.57;0.57;;;;;;;;;;5048790;28;20231;-77
2023/09/20 14:52:14;;;;;;;1.15;0.90;;;;;;;;;;5048624;28;20208;-77
2023/09/20 14:54:40;;;;;;;0.90;0.90;;;;;;;;;;5043573;28;20205;-77
2023/09/20 14:57:07;;;;;;;0.77;0.70;;;;;;;;;;5045354;28;20209;-76
2023/09/20 14:59:33;;;;;;;1.75;0.75;;;;;;;;;;5047692;28;20232;-77
2023/09/20 15:02:01;;;;;;;2.45;0.88;;;;;;;;;;5048608;28;20566;-77
2023/09/20 15:04:30;;;;;;;2.25;1.00;;;;;;;;;;5047842;28;20435;-76
2023/09/20 15:06:56;;;;;;;1.48;1.00;;;;;;;;;;5051331;28;20220;-75
2023/09/20 15:09:22;;;;;;;1.38;0.80;;;;;;;;;;5051592;28;20208;-75
2023/09/20 15:11:49;;;;;;;0.75;0.75;;;;;;;;;;5051616;28;20197;-75
2023/09/20 15:14:15;;;;;;;0.70;0.70;;;;;;;;;;5051384;28;20208;-75
2023/09/20 15:16:41;;;;;;;1.10;1.00;;;;;;;;;;5051398;28;20224;-75
2023/09/20 15:19:09;;;;;;;3.25;0.90;;;;;;;;;;5051725;28;20219;-75